sensor_id;sensor_type;location;lat;lon;timestamp;pressure;altitude;pressure_sealevel;temperature;humidity
51297;BME280;37380;45.186;9.792;2023-03-01T00:01:20;101575.28;;;3.39;100.00
51297;BME280;37380;45.186;9.792;2023-03-01T00:04:15;101585.81;;;3.30;100.00
51297;BME280;37380;45.186;9.792;2023-03-01T00:06:42;101574.81;;;3.11;100.00
51297;BME280;37380;45.186;9.792;2023-03-01T00:09:14;101528.38;;;2.89;100.00
51297;BME280;37380;45.186;9.792;2023-03-01T00:11:41;101593.31;;;3.05;100.00
51297;BME280;37380;45.186;9.792;2023-03-01T00:14:09;101520.44;;;2.76;100.00
51297;BME280;37380;45.186;9.792;2023-03-01T00:16:38;101591.16;;;3.22;100.00
51297;BME280;37380;45.186;9.792;2023-03-01T00:19:08;101596.38;;;3.33;100.00
51297;BME280;37380;45.186;9.792;2023-03-01T00:21:43;101584.97;;;2.98;100.00
51297;BME280;37380;45.186;9.792;2023-03-01T00:24:36;101575.97;;;2.60;100.00
51297;BME280;37380;45.186;9.792;2023-03-01T00:27:32;101539.03;;;2.39;100.00
51297;BME280;37380;45.186;9.792;2023-03-01T00:29:58;101524.50;;;2.30;100.00
51297;BME280;37380;45.186;9.792;2023-03-01T00:32:32;101573.56;;;2.41;100.00
51297;BME280;37380;45.186;9.792;2023-03-01T00:35:27;101597.56;;;2.51;100.00
51297;BME280;37380;45.186;9.792;2023-03-01T00:37:54;101525.75;;;2.02;100.00
51297;BME280;37380;45.186;9.792;2023-03-01T00:40:27;101517.25;;;1.83;100.00
51297;BME280;37380;45.186;9.792;2023-03-01T00:42:55;101540.69;;;1.86;100.00
51297;BME280;37380;45.186;9.792;2023-03-01T00:45:22;101584.53;;;2.07;100.00
51297;BME280;37380;45.186;9.792;2023-03-01T00:47:51;101584.78;;;2.10;100.00
51297;BME280;37380;45.186;9.792;2023-03-01T00:50:19;101576.00;;;2.08;100.00
51297;BME280;37380;45.186;9.792;2023-03-01T00:52:46;101485.09;;;1.78;100.00
51297;BME280;37380;45.186;9.792;2023-03-01T00:55:13;101559.94;;;2.32;100.00
51297;BME280;37380;45.186;9.792;2023-03-01T00:57:40;101508.38;;;2.32;100.00
51297;BME280;37380;45.186;9.792;2023-03-01T01:00:08;101550.91;;;2.37;100.00
51297;BME280;37380;45.186;9.792;2023-03-01T01:02:36;101509.06;;;2.19;100.00
51297;BME280;37380;45.186;9.792;2023-03-01T01:05:04;101549.13;;;2.36;100.00
51297;BME280;37380;45.186;9.792;2023-03-01T01:07:32;101533.97;;;2.19;100.00
51297;BME280;37380;45.186;9.792;2023-03-01T01:09:59;101481.31;;;1.85;100.00
51297;BME280;37380;45.186;9.792;2023-03-01T01:12:33;101521.47;;;2.13;100.00
51297;BME280;37380;45.186;9.792;2023-03-01T01:15:27;101500.34;;;1.97;100.00
51297;BME280;37380;45.186;9.792;2023-03-01T01:17:54;101424.09;;;1.46;100.00
51297;BME280;37380;45.186;9.792;2023-03-01T01:20:28;101527.03;;;1.97;100.00
51297;BME280;37380;45.186;9.792;2023-03-01T01:23:25;101479.91;;;1.88;100.00
51297;BME280;37380;45.186;9.792;2023-03-01T01:25:52;101467.31;;;1.81;100.00
51297;BME280;37380;45.186;9.792;2023-03-01T01:28:19;101478.34;;;1.90;100.00
51297;BME280;37380;45.186;9.792;2023-03-01T01:30:46;101466.41;;;1.70;100.00
51297;BME280;37380;45.186;9.792;2023-03-01T01:33:13;101489.06;;;1.85;100.00
51297;BME280;37380;45.186;9.792;2023-03-01T01:35:40;101462.72;;;1.46;100.00
51297;BME280;37380;45.186;9.792;2023-03-01T01:38:06;101484.34;;;1.58;100.00
51297;BME280;37380;45.186;9.792;2023-03-01T01:40:33;101383.28;;;1.30;100.00
51297;BME280;37380;45.186;9.792;2023-03-01T01:43:00;101358.22;;;1.07;100.00
51297;BME280;37380;45.186;9.792;2023-03-01T01:48:02;101269.34;;;1.01;100.00
51297;BME280;37380;45.186;9.792;2023-03-01T01:50:31;101446.88;;;1.94;100.00
51297;BME280;37380;45.186;9.792;2023-03-01T01:53:10;101425.34;;;1.72;100.00
51297;BME280;37380;45.186;9.792;2023-03-01T01:55:43;101418.44;;;1.83;100.00
51297;BME280;37380;45.186;9.792;2023-03-01T01:58:14;101356.25;;;1.35;100.00
51297;BME280;37380;45.186;9.792;2023-03-01T02:00:49;101383.66;;;1.45;100.00
51297;BME280;37380;45.186;9.792;2023-03-01T02:03:50;101426.28;;;1.52;100.00
51297;BME280;37380;45.186;9.792;2023-03-01T02:06:59;101415.97;;;1.52;100.00
51297;BME280;37380;45.186;9.792;2023-03-01T02:09:38;101413.00;;;1.47;100.00
51297;BME280;37380;45.186;9.792;2023-03-01T02:12:06;101379.81;;;1.40;100.00
51297;BME280;37380;45.186;9.792;2023-03-01T02:14:33;101384.84;;;1.39;100.00
51297;BME280;37380;45.186;9.792;2023-03-01T02:17:00;101356.19;;;1.13;100.00
51297;BME280;37380;45.186;9.792;2023-03-01T02:22:22;101424.59;;;1.42;100.00
51297;BME280;37380;45.186;9.792;2023-03-01T02:30:31;101396.59;;;1.15;100.00
51297;BME280;37380;45.186;9.792;2023-03-01T02:33:05;101407.91;;;1.37;100.00
51297;BME280;37380;45.186;9.792;2023-03-01T02:35:54;101359.72;;;1.46;100.00
51297;BME280;37380;45.186;9.792;2023-03-01T02:38:22;101325.03;;;1.21;100.00
51297;BME280;37380;45.186;9.792;2023-03-01T02:40:51;101354.56;;;1.36;100.00
51297;BME280;37380;45.186;9.792;2023-03-01T02:43:22;101340.84;;;1.25;100.00
51297;BME280;37380;45.186;9.792;2023-03-01T02:45:54;101373.44;;;1.57;100.00
51297;BME280;37380;45.186;9.792;2023-03-01T02:48:24;101395.66;;;1.77;100.00
51297;BME280;37380;45.186;9.792;2023-03-01T02:56:54;101339.81;;;1.23;100.00
51297;BME280;37380;45.186;9.792;2023-03-01T02:59:27;101363.78;;;1.22;100.00
51297;BME280;37380;45.186;9.792;2023-03-01T03:01:55;101360.44;;;1.03;100.00
51297;BME280;37380;45.186;9.792;2023-03-01T03:04:22;101336.00;;;0.98;100.00
51297;BME280;37380;45.186;9.792;2023-03-01T03:06:50;101354.72;;;1.38;100.00
51297;BME280;37380;45.186;9.792;2023-03-01T03:09:18;101373.63;;;1.28;100.00
51297;BME280;37380;45.186;9.792;2023-03-01T03:11:46;101365.28;;;1.30;100.00
51297;BME280;37380;45.186;9.792;2023-03-01T03:14:14;101385.25;;;1.23;100.00
51297;BME280;37380;45.186;9.792;2023-03-01T03:16:46;101349.75;;;0.98;100.00
51297;BME280;37380;45.186;9.792;2023-03-01T03:19:14;101370.47;;;0.89;100.00
51297;BME280;37380;45.186;9.792;2023-03-01T03:21:48;101300.78;;;0.45;100.00
51297;BME280;37380;45.186;9.792;2023-03-01T03:24:48;101324.56;;;0.63;100.00
51297;BME280;37380;45.186;9.792;2023-03-01T03:27:45;101183.91;;;-0.30;100.00
51297;BME280;37380;45.186;9.792;2023-03-01T03:30:15;101367.25;;;0.72;100.00
51297;BME280;37380;45.186;9.792;2023-03-01T03:32:43;101359.44;;;0.70;100.00
51297;BME280;37380;45.186;9.792;2023-03-01T03:35:18;101368.53;;;0.87;100.00
51297;BME280;37380;45.186;9.792;2023-03-01T03:37:45;101309.91;;;0.42;100.00
51297;BME280;37380;45.186;9.792;2023-03-01T03:41:03;101356.19;;;0.42;100.00
51297;BME280;37380;45.186;9.792;2023-03-01T03:43:32;101324.06;;;0.47;100.00
51297;BME280;37380;45.186;9.792;2023-03-01T03:45:59;101308.50;;;0.35;100.00
51297;BME280;37380;45.186;9.792;2023-03-01T03:48:26;101354.91;;;0.67;100.00
51297;BME280;37380;45.186;9.792;2023-03-01T03:50:55;101354.41;;;0.61;100.00
51297;BME280;37380;45.186;9.792;2023-03-01T03:53:25;101366.22;;;0.59;100.00
51297;BME280;37380;45.186;9.792;2023-03-01T03:55:54;101370.09;;;0.75;100.00
51297;BME280;37380;45.186;9.792;2023-03-01T03:58:25;101375.59;;;0.49;100.00
51297;BME280;37380;45.186;9.792;2023-03-01T04:00:54;101313.88;;;0.18;100.00
51297;BME280;37380;45.186;9.792;2023-03-01T04:03:26;101317.63;;;0.42;100.00
51297;BME280;37380;45.186;9.792;2023-03-01T04:05:53;101286.63;;;0.30;100.00
51297;BME280;37380;45.186;9.792;2023-03-01T04:08:22;101359.78;;;0.75;100.00
51297;BME280;37380;45.186;9.792;2023-03-01T04:10:51;101355.81;;;0.78;100.00
51297;BME280;37380;45.186;9.792;2023-03-01T04:13:21;101351.72;;;0.70;100.00
51297;BME280;37380;45.186;9.792;2023-03-01T04:15:49;101352.84;;;0.94;100.00
51297;BME280;37380;45.186;9.792;2023-03-01T04:18:19;101324.56;;;0.74;100.00
51297;BME280;37380;45.186;9.792;2023-03-01T04:20:53;101340.50;;;0.80;100.00
51297;BME280;37380;45.186;9.792;2023-03-01T04:23:47;101318.28;;;0.70;100.00
51297;BME280;37380;45.186;9.792;2023-03-01T04:26:14;101347.19;;;0.78;100.00
51297;BME280;37380;45.186;9.792;2023-03-01T04:28:42;101357.75;;;0.71;100.00
51297;BME280;37380;45.186;9.792;2023-03-01T04:31:17;101339.50;;;0.67;100.00
51297;BME280;37380;45.186;9.792;2023-03-01T04:33:50;101356.19;;;0.62;100.00
51297;BME280;37380;45.186;9.792;2023-03-01T04:36:23;101348.06;;;0.58;100.00
51297;BME280;37380;45.186;9.792;2023-03-01T04:38:51;101319.94;;;0.39;100.00
51297;BME280;37380;45.186;9.792;2023-03-01T04:41:20;101322.38;;;0.48;100.00
51297;BME280;37380;45.186;9.792;2023-03-01T04:43:47;101329.97;;;0.56;100.00
51297;BME280;37380;45.186;9.792;2023-03-01T04:46:17;101309.91;;;0.42;100.00
51297;BME280;37380;45.186;9.792;2023-03-01T04:48:52;101320.16;;;0.32;100.00
51297;BME280;37380;45.186;9.792;2023-03-01T04:51:53;101292.44;;;0.38;100.00
51297;BME280;37380;45.186;9.792;2023-03-01T04:54:56;101335.63;;;0.62;100.00
51297;BME280;37380;45.186;9.792;2023-03-01T04:57:39;101352.09;;;0.64;100.00
51297;BME280;37380;45.186;9.792;2023-03-01T05:00:09;101201.09;;;-0.39;100.00
51297;BME280;37380;45.186;9.792;2023-03-01T05:05:15;101339.63;;;0.59;100.00
51297;BME280;37380;45.186;9.792;2023-03-01T05:07:42;101227.19;;;-0.24;100.00
51297;BME280;37380;45.186;9.792;2023-03-01T05:10:09;101312.72;;;0.35;100.00
51297;BME280;37380;45.186;9.792;2023-03-01T05:12:39;101306.75;;;0.05;100.00
51297;BME280;37380;45.186;9.792;2023-03-01T05:15:06;101308.69;;;0.08;100.00
51297;BME280;37380;45.186;9.792;2023-03-01T05:17:34;101319.38;;;0.22;100.00
51297;BME280;37380;45.186;9.792;2023-03-01T05:20:01;101281.81;;;-0.16;100.00
51297;BME280;37380;45.186;9.792;2023-03-01T05:22:36;101319.00;;;0.18;100.00
51297;BME280;37380;45.186;9.792;2023-03-01T05:25:30;101306.56;;;0.43;100.00
51297;BME280;37380;45.186;9.792;2023-03-01T05:28:01;101338.97;;;0.61;100.00
51297;BME280;37380;45.186;9.792;2023-03-01T05:30:34;101348.34;;;0.81;100.00
51297;BME280;37380;45.186;9.792;2023-03-01T05:33:01;101309.63;;;0.49;100.00
51297;BME280;37380;45.186;9.792;2023-03-01T05:35:28;101318.03;;;0.67;100.00
51297;BME280;37380;45.186;9.792;2023-03-01T05:38:03;101350.41;;;0.65;100.00
51297;BME280;37380;45.186;9.792;2023-03-01T05:41:00;101333.81;;;0.51;100.00
51297;BME280;37380;45.186;9.792;2023-03-01T05:43:30;101327.13;;;0.63;100.00
51297;BME280;37380;45.186;9.792;2023-03-01T05:46:17;101340.75;;;0.93;100.00
51297;BME280;37380;45.186;9.792;2023-03-01T05:49:12;101292.00;;;0.64;100.00
51297;BME280;37380;45.186;9.792;2023-03-01T05:51:41;101342.19;;;0.79;100.00
51297;BME280;37380;45.186;9.792;2023-03-01T05:54:11;101278.78;;;0.39;100.00
51297;BME280;37380;45.186;9.792;2023-03-01T05:56:38;101345.66;;;0.59;100.00
51297;BME280;37380;45.186;9.792;2023-03-01T05:59:05;101299.59;;;0.32;100.00
51297;BME280;37380;45.186;9.792;2023-03-01T06:01:33;101324.19;;;0.79;100.00
51297;BME280;37380;45.186;9.792;2023-03-01T06:04:01;101317.34;;;0.70;100.00
51297;BME280;37380;45.186;9.792;2023-03-01T06:06:28;101323.50;;;0.92;100.00
51297;BME280;37380;45.186;9.792;2023-03-01T06:08:55;101320.81;;;0.80;100.00
51297;BME280;37380;45.186;9.792;2023-03-01T06:11:29;101345.34;;;1.07;100.00
51297;BME280;37380;45.186;9.792;2023-03-01T06:14:31;101316.31;;;0.98;100.00
51297;BME280;37380;45.186;9.792;2023-03-01T06:17:25;101357.22;;;0.95;100.00
51297;BME280;37380;45.186;9.792;2023-03-01T06:19:52;101316.84;;;0.84;100.00
51297;BME280;37380;45.186;9.792;2023-03-01T06:22:26;101260.16;;;0.52;100.00
51297;BME280;37380;45.186;9.792;2023-03-01T06:25:23;101356.16;;;1.24;100.00
51297;BME280;37380;45.186;9.792;2023-03-01T06:27:58;101352.84;;;0.84;100.00
51297;BME280;37380;45.186;9.792;2023-03-01T06:30:59;101363.66;;;0.80;100.00
51297;BME280;37380;45.186;9.792;2023-03-01T06:34:02;101359.41;;;0.60;100.00
51297;BME280;37380;45.186;9.792;2023-03-01T06:36:32;101333.56;;;0.58;100.00
51297;BME280;37380;45.186;9.792;2023-03-01T06:38:59;101376.66;;;0.92;100.00
51297;BME280;37380;45.186;9.792;2023-03-01T06:41:25;101379.84;;;1.20;100.00
51297;BME280;37380;45.186;9.792;2023-03-01T06:43:53;101368.88;;;1.43;100.00
51297;BME280;37380;45.186;9.792;2023-03-01T06:46:27;101330.66;;;1.27;100.00
51297;BME280;37380;45.186;9.792;2023-03-01T06:49:21;101366.84;;;1.28;100.00
51297;BME280;37380;45.186;9.792;2023-03-01T06:51:55;101348.44;;;1.24;100.00
51297;BME280;37380;45.186;9.792;2023-03-01T06:54:49;101350.97;;;1.44;100.00
51297;BME280;37380;45.186;9.792;2023-03-01T06:57:16;101347.78;;;1.16;100.00
51297;BME280;37380;45.186;9.792;2023-03-01T06:59:43;101335.31;;;1.10;100.00
51297;BME280;37380;45.186;9.792;2023-03-01T07:02:11;101297.78;;;1.02;100.00
51297;BME280;37380;45.186;9.792;2023-03-01T07:04:41;101302.53;;;0.98;100.00
51297;BME280;37380;45.186;9.792;2023-03-01T07:07:09;101348.88;;;1.50;100.00
51297;BME280;37380;45.186;9.792;2023-03-01T07:09:36;101292.53;;;1.33;100.00
51297;BME280;37380;45.186;9.792;2023-03-01T07:12:03;101335.75;;;1.57;100.00
51297;BME280;37380;45.186;9.792;2023-03-01T07:14:30;101354.59;;;1.78;100.00
51297;BME280;37380;45.186;9.792;2023-03-01T07:17:04;101335.50;;;1.87;100.00
51297;BME280;37380;45.186;9.792;2023-03-01T07:20:06;101346.88;;;2.44;100.00
51297;BME280;37380;45.186;9.792;2023-03-01T07:23:07;101350.59;;;2.26;100.00
51297;BME280;37380;45.186;9.792;2023-03-01T07:26:01;101340.34;;;2.38;100.00
51297;BME280;37380;45.186;9.792;2023-03-01T07:28:35;101328.28;;;2.94;100.00
51297;BME280;37380;45.186;9.792;2023-03-01T07:31:36;101351.13;;;2.78;100.00
51297;BME280;37380;45.186;9.792;2023-03-01T07:34:30;101347.50;;;2.30;100.00
51297;BME280;37380;45.186;9.792;2023-03-01T07:36:57;101356.00;;;2.29;100.00
51297;BME280;37380;45.186;9.792;2023-03-01T07:39:24;101327.22;;;2.13;100.00
51297;BME280;37380;45.186;9.792;2023-03-01T07:41:51;101350.31;;;2.33;100.00
51297;BME280;37380;45.186;9.792;2023-03-01T07:44:28;101297.66;;;1.97;100.00
51297;BME280;37380;45.186;9.792;2023-03-01T07:47:15;101351.78;;;2.41;100.00
51297;BME280;37380;45.186;9.792;2023-03-01T07:49:42;101307.13;;;2.31;100.00
51297;BME280;37380;45.186;9.792;2023-03-01T07:52:10;101310.97;;;2.36;100.00
51297;BME280;37380;45.186;9.792;2023-03-01T07:54:38;101265.09;;;2.32;100.00
51297;BME280;37380;45.186;9.792;2023-03-01T07:57:05;101348.84;;;3.16;100.00
51297;BME280;37380;45.186;9.792;2023-03-01T07:59:32;101286.63;;;2.89;100.00
51297;BME280;37380;45.186;9.792;2023-03-01T08:02:00;101326.03;;;2.99;100.00
51297;BME280;37380;45.186;9.792;2023-03-01T08:04:34;101330.91;;;3.06;100.00
51297;BME280;37380;45.186;9.792;2023-03-01T08:07:29;101321.69;;;3.21;100.00
51297;BME280;37380;45.186;9.792;2023-03-01T08:09:56;101334.25;;;3.28;100.00
51297;BME280;37380;45.186;9.792;2023-03-01T08:12:29;101316.09;;;3.15;100.00
51297;BME280;37380;45.186;9.792;2023-03-01T08:15:30;101318.53;;;3.49;100.00
51297;BME280;37380;45.186;9.792;2023-03-01T08:18:31;101339.19;;;3.72;100.00
51297;BME280;37380;45.186;9.792;2023-03-01T08:21:32;101316.94;;;3.74;100.00
51297;BME280;37380;45.186;9.792;2023-03-01T08:24:33;101330.03;;;4.01;100.00
51297;BME280;37380;45.186;9.792;2023-03-01T08:27:27;101330.78;;;4.12;100.00
51297;BME280;37380;45.186;9.792;2023-03-01T08:30:01;101305.00;;;3.88;100.00
51297;BME280;37380;45.186;9.792;2023-03-01T08:32:55;101304.47;;;4.17;100.00
51297;BME280;37380;45.186;9.792;2023-03-01T08:35:23;101335.06;;;4.11;100.00
51297;BME280;37380;45.186;9.792;2023-03-01T08:37:50;101298.06;;;4.12;100.00
51297;BME280;37380;45.186;9.792;2023-03-01T08:40:17;101305.59;;;4.46;100.00
51297;BME280;37380;45.186;9.792;2023-03-01T08:42:44;101295.81;;;4.42;100.00
51297;BME280;37380;45.186;9.792;2023-03-01T08:45:11;101329.06;;;5.12;100.00
51297;BME280;37380;45.186;9.792;2023-03-01T08:47:47;101321.88;;;5.08;100.00
51297;BME280;37380;45.186;9.792;2023-03-01T08:50:41;101322.91;;;5.24;100.00
51297;BME280;37380;45.186;9.792;2023-03-01T08:53:35;101306.66;;;5.53;100.00
51297;BME280;37380;45.186;9.792;2023-03-01T08:56:02;101227.03;;;5.10;100.00
51297;BME280;37380;45.186;9.792;2023-03-01T08:58:29;101239.97;;;4.84;100.00
51297;BME280;37380;45.186;9.792;2023-03-01T09:00:56;101302.34;;;5.13;100.00
51297;BME280;37380;45.186;9.792;2023-03-01T09:03:25;101288.47;;;4.99;100.00
51297;BME280;37380;45.186;9.792;2023-03-01T09:05:52;101304.34;;;5.71;100.00
51297;BME280;37380;45.186;9.792;2023-03-01T09:08:19;101323.59;;;6.29;100.00
51297;BME280;37380;45.186;9.792;2023-03-01T09:10:47;101316.53;;;6.84;100.00
51297;BME280;37380;45.186;9.792;2023-03-01T09:13:14;101261.97;;;6.54;100.00
51297;BME280;37380;45.186;9.792;2023-03-01T09:15:40;101307.28;;;5.90;100.00
51297;BME280;37380;45.186;9.792;2023-03-01T09:18:08;101275.88;;;5.44;100.00
51297;BME280;37380;45.186;9.792;2023-03-01T09:20:41;101276.84;;;5.33;100.00
51297;BME280;37380;45.186;9.792;2023-03-01T09:23:44;101261.81;;;6.23;100.00
51297;BME280;37380;45.186;9.792;2023-03-01T09:26:45;101280.09;;;6.40;100.00
51297;BME280;37380;45.186;9.792;2023-03-01T09:29:47;101280.72;;;6.93;100.00
51297;BME280;37380;45.186;9.792;2023-03-01T09:32:14;101263.91;;;7.33;99.42
51297;BME280;37380;45.186;9.792;2023-03-01T09:34:41;101268.94;;;7.61;99.78
51297;BME280;37380;45.186;9.792;2023-03-01T09:37:36;101262.72;;;7.42;98.50
51297;BME280;37380;45.186;9.792;2023-03-01T09:40:31;101257.16;;;6.61;100.00
51297;BME280;37380;45.186;9.792;2023-03-01T09:43:07;101238.50;;;6.68;100.00
51297;BME280;37380;45.186;9.792;2023-03-01T09:45:41;101266.94;;;7.71;100.00
51297;BME280;37380;45.186;9.792;2023-03-01T09:48:20;101266.47;;;8.11;100.00
51297;BME280;37380;45.186;9.792;2023-03-01T09:50:51;101198.16;;;7.19;96.87
51297;BME280;37380;45.186;9.792;2023-03-01T09:53:22;101203.47;;;7.06;99.23
51297;BME280;37380;45.186;9.792;2023-03-01T09:56:02;101201.78;;;7.37;95.82
51297;BME280;37380;45.186;9.792;2023-03-01T09:58:57;101229.88;;;8.08;96.93
51297;BME280;37380;45.186;9.792;2023-03-01T10:07:10;101193.44;;;8.75;95.68
51297;BME280;37380;45.186;9.792;2023-03-01T10:09:49;101221.81;;;9.41;94.14
51297;BME280;37380;45.186;9.792;2023-03-01T10:12:44;101234.88;;;9.05;88.05
51297;BME280;37380;45.186;9.792;2023-03-01T10:15:24;101227.00;;;8.87;89.25
51297;BME280;37380;45.186;9.792;2023-03-01T10:17:58;101203.13;;;8.96;88.46
51297;BME280;37380;45.186;9.792;2023-03-01T10:20:58;101206.50;;;8.41;91.35
51297;BME280;37380;45.186;9.792;2023-03-01T10:24:11;101173.78;;;8.64;91.66
51297;BME280;37380;45.186;9.792;2023-03-01T10:27:51;101184.94;;;9.33;92.43
51297;BME280;37380;45.186;9.792;2023-03-01T10:33:00;101162.41;;;9.53;82.03
51297;BME280;37380;45.186;9.792;2023-03-01T10:35:32;101156.09;;;9.30;81.61
51297;BME280;37380;45.186;9.792;2023-03-01T10:38:12;101187.72;;;7.98;86.28
51297;BME280;37380;45.186;9.792;2023-03-01T10:43:49;101179.59;;;8.58;85.70
51297;BME280;37380;45.186;9.792;2023-03-01T10:49:23;101176.56;;;9.58;81.39
51297;BME280;37380;45.186;9.792;2023-03-01T10:51:53;101161.13;;;8.72;83.49
51297;BME280;37380;45.186;9.792;2023-03-01T10:56:58;101161.25;;;8.39;85.02
51297;BME280;37380;45.186;9.792;2023-03-01T10:59:31;101151.28;;;8.66;85.21
51297;BME280;37380;45.186;9.792;2023-03-01T11:02:23;101171.94;;;8.79;83.91
51297;BME280;37380;45.186;9.792;2023-03-01T11:05:13;101164.25;;;8.65;83.48
51297;BME280;37380;45.186;9.792;2023-03-01T11:08:10;101155.00;;;8.03;87.43
51297;BME280;37380;45.186;9.792;2023-03-01T11:10:45;101112.09;;;7.62;87.22
51297;BME280;37380;45.186;9.792;2023-03-01T11:25:14;101108.44;;;8.42;86.02
51297;BME280;37380;45.186;9.792;2023-03-01T11:28:14;101027.81;;;7.58;88.03
51297;BME280;37380;45.186;9.792;2023-03-01T11:31:07;101109.16;;;8.93;88.51
51297;BME280;37380;45.186;9.792;2023-03-01T11:33:56;101109.69;;;9.41;89.75
51297;BME280;37380;45.186;9.792;2023-03-01T11:36:35;101092.16;;;8.81;85.49
51297;BME280;37380;45.186;9.792;2023-03-01T11:39:53;101090.91;;;8.93;84.77
51297;BME280;37380;45.186;9.792;2023-03-01T11:49:42;101099.63;;;9.30;88.97
51297;BME280;37380;45.186;9.792;2023-03-01T11:55:29;101089.91;;;8.71;84.77
51297;BME280;37380;45.186;9.792;2023-03-01T12:29:40;101041.63;;;7.74;89.85
51297;BME280;37380;45.186;9.792;2023-03-01T12:32:44;101078.06;;;8.60;87.60
51297;BME280;37380;45.186;9.792;2023-03-01T12:46:41;101087.16;;;8.68;89.87
51297;BME280;37380;45.186;9.792;2023-03-01T12:49:21;101076.72;;;8.68;90.21
51297;BME280;37380;45.186;9.792;2023-03-01T12:52:08;101084.34;;;9.01;93.29
51297;BME280;37380;45.186;9.792;2023-03-01T12:55:16;101063.88;;;8.53;89.72
51297;BME280;37380;45.186;9.792;2023-03-01T12:58:08;101020.63;;;8.57;96.07
51297;BME280;37380;45.186;9.792;2023-03-01T13:10:34;101033.13;;;9.60;87.24
51297;BME280;37380;45.186;9.792;2023-03-01T13:13:33;101045.75;;;9.70;88.95
51297;BME280;37380;45.186;9.792;2023-03-01T13:19:21;101074.31;;;9.86;90.71
51297;BME280;37380;45.186;9.792;2023-03-01T13:21:56;101074.81;;;9.78;88.54
51297;BME280;37380;45.186;9.792;2023-03-01T13:25:02;101059.34;;;9.63;88.76
51297;BME280;37380;45.186;9.792;2023-03-01T13:50:00;101089.66;;;9.40;90.21
51297;BME280;37380;45.186;9.792;2023-03-01T13:55:02;101090.31;;;9.16;89.93
51297;BME280;37380;45.186;9.792;2023-03-01T14:00:00;101090.31;;;9.16;92.26
51297;BME280;37380;45.186;9.792;2023-03-01T14:03:11;101049.53;;;8.81;93.77
51297;BME280;37380;45.186;9.792;2023-03-01T14:05:41;101085.47;;;9.06;95.11
51297;BME280;37380;45.186;9.792;2023-03-01T14:08:24;101066.81;;;8.97;98.63
51297;BME280;37380;45.186;9.792;2023-03-01T14:11:30;101072.88;;;9.15;100.00
51297;BME280;37380;45.186;9.792;2023-03-01T14:19:34;101046.41;;;9.25;92.96
51297;BME280;37380;45.186;9.792;2023-03-01T14:22:32;101065.13;;;8.79;100.00
51297;BME280;37380;45.186;9.792;2023-03-01T14:25:35;101047.19;;;8.68;100.00
51297;BME280;37380;45.186;9.792;2023-03-01T14:28:37;101055.25;;;8.92;100.00
51297;BME280;37380;45.186;9.792;2023-03-01T14:31:38;100978.28;;;8.61;100.00
51297;BME280;37380;45.186;9.792;2023-03-01T14:34:21;101004.63;;;8.87;100.00
51297;BME280;37380;45.186;9.792;2023-03-01T14:36:55;100993.72;;;8.38;100.00
51297;BME280;37380;45.186;9.792;2023-03-01T14:39:50;101042.06;;;8.51;100.00
51297;BME280;37380;45.186;9.792;2023-03-01T14:42:26;101016.00;;;8.33;100.00
51297;BME280;37380;45.186;9.792;2023-03-01T14:45:29;101010.50;;;8.27;100.00
51297;BME280;37380;45.186;9.792;2023-03-01T14:48:31;101036.13;;;8.37;100.00
51297;BME280;37380;45.186;9.792;2023-03-01T14:51:37;101002.28;;;8.37;100.00
51297;BME280;37380;45.186;9.792;2023-03-01T14:54:44;101037.84;;;8.37;100.00
51297;BME280;37380;45.186;9.792;2023-03-01T14:57:26;101031.59;;;8.50;100.00
51297;BME280;37380;45.186;9.792;2023-03-01T14:59:55;101012.41;;;8.31;100.00
51297;BME280;37380;45.186;9.792;2023-03-01T15:02:26;100888.16;;;7.56;100.00
51297;BME280;37380;45.186;9.792;2023-03-01T15:04:57;101042.44;;;8.41;100.00
51297;BME280;37380;45.186;9.792;2023-03-01T15:07:38;101027.72;;;8.25;100.00
51297;BME280;37380;45.186;9.792;2023-03-01T15:10:36;101039.81;;;8.23;100.00
51297;BME280;37380;45.186;9.792;2023-03-01T15:13:21;101023.41;;;8.08;100.00
51297;BME280;37380;45.186;9.792;2023-03-01T15:16:21;101023.66;;;8.12;100.00
51297;BME280;37380;45.186;9.792;2023-03-01T15:21:44;101053.91;;;8.28;100.00
51297;BME280;37380;45.186;9.792;2023-03-01T15:24:48;101077.41;;;8.64;100.00
51297;BME280;37380;45.186;9.792;2023-03-01T15:27:46;101069.28;;;8.58;100.00
51297;BME280;37380;45.186;9.792;2023-03-01T15:30:35;101085.88;;;8.60;100.00
51297;BME280;37380;45.186;9.792;2023-03-01T15:35:59;101080.63;;;8.24;100.00
51297;BME280;37380;45.186;9.792;2023-03-01T15:38:35;101070.97;;;8.05;100.00
51297;BME280;37380;45.186;9.792;2023-03-01T15:41:46;101062.50;;;7.91;100.00
51297;BME280;37380;45.186;9.792;2023-03-01T15:44:29;101107.31;;;7.69;100.00
51297;BME280;37380;45.186;9.792;2023-03-01T15:47:29;101105.91;;;7.43;100.00
51297;BME280;37380;45.186;9.792;2023-03-01T15:50:00;101065.63;;;7.19;100.00
51297;BME280;37380;45.186;9.792;2023-03-01T15:52:36;101094.56;;;6.94;100.00
51297;BME280;37380;45.186;9.792;2023-03-01T15:55:31;100936.53;;;5.77;100.00
51297;BME280;37380;45.186;9.792;2023-03-01T15:58:19;101112.44;;;6.73;100.00
51297;BME280;37380;45.186;9.792;2023-03-01T16:01:11;101109.41;;;6.50;100.00
51297;BME280;37380;45.186;9.792;2023-03-01T16:03:40;101139.97;;;6.54;100.00
51297;BME280;37380;45.186;9.792;2023-03-01T16:06:13;101103.63;;;6.25;100.00
51297;BME280;37380;45.186;9.792;2023-03-01T16:09:14;101103.53;;;6.23;100.00
51297;BME280;37380;45.186;9.792;2023-03-01T16:12:13;101114.44;;;6.18;100.00
51297;BME280;37380;45.186;9.792;2023-03-01T16:14:41;101059.19;;;5.76;100.00
51297;BME280;37380;45.186;9.792;2023-03-01T16:17:08;101118.28;;;6.09;100.00
51297;BME280;37380;45.186;9.792;2023-03-01T16:19:37;101131.19;;;6.08;100.00
51297;BME280;37380;45.186;9.792;2023-03-01T16:22:12;100937.34;;;4.88;100.00
51297;BME280;37380;45.186;9.792;2023-03-01T16:25:21;101134.19;;;6.01;100.00